Medlin's Ranch, Nevada Weather observations

Data are for observation ending at time listed.
 Day   Time    Ave.   Ave.  Ave.  Vector   Max.   Stn.    Total    Solar   Ave.  
  of    of     Air    Rel.  Wind   Wind    Wind   Baro.  Precip.   Rad.    Soil  
Year   Day     Temp.  Hum.  Speed  Dir.    Gust   Pres.                    Temp. 
2014   (PST)    F      %     mph   deg.    mph     mb.     in.     W/m2     F   
------------------------------------------------------------------------------
 107   14:00   79.9    11    9.9   153     24.3    860     0.00     884    77.0
 107   15:00   79.9    11   12.4   178     22.1    859     0.00     706    77.6
 107   16:00   79.4    11   11.8   186     23.3    858     0.00     524    77.9
 107   17:00   78.3    11   11.0   178     19.0    858     0.00     275    77.9
 107   18:00   75.6    12   11.5   182     21.2    858     0.00      95    77.2
 107   19:00   71.9    13   10.5   198     18.0    858     0.00       3    76.0
 107   20:00   68.9    15    8.6   202     13.8    859     0.00       0    74.5
 107   21:00   66.0    16    7.1   205     11.3    859     0.00       0    73.1
 107   22:00   63.0    17    4.3   190     10.2    859     0.00       0    71.8
 107   23:00   62.7    16    4.4   162      9.7    859     0.00       0    70.5
 108    0:00   60.0    19    2.6   227      6.3    859     0.00       0    69.3
 108    1:00   57.4    21    1.9   245      3.6    859     0.00       0    68.3
 108    2:00   58.2    21    2.9   201      4.7    859     0.00       0    67.4
 108    3:00   58.8    21    2.3    48      6.7    859     0.00       0    66.5
 108    4:00   58.4    23    3.7   168      8.0    859     0.00       0    65.8
 108    5:00   57.3    25    5.8   199      9.6    859     0.00       0    65.1
 108    6:00   55.7    27    2.0   321      5.9    859     0.00      22    64.5
 108    7:00   59.9    24    2.5   280      4.7    860     0.00     231    63.9
 108    8:00   67.3    18    2.8   355      6.1    860     0.00     499    64.2
 108    9:00   70.2    15    4.0   124     11.5    860     0.00     637    65.8
 108   10:00   71.2    12    7.1   140     15.2    860     0.00     604    68.3
 108   11:00   71.3    12    8.6   156     17.8    860     0.00     544    70.6
 108   12:00   71.8    14   12.4   155     24.7    860     0.00     570    71.9
 108   13:00   71.9    14    9.9   152     20.3    860     0.00     490    73.0

Return to Medlin's Ranch, Nevada graphs page.


Western Regional Climate Center,wrcc@dri.edu